createdAt,value
2019-02-24T00:00:42.416Z,9.43
2019-02-24T00:03:10.933Z,9.48
2019-02-24T00:05:39.456Z,7.55
2019-02-24T00:08:08.007Z,7.75
2019-02-24T00:10:36.521Z,8.70
2019-02-24T00:13:05.042Z,10.35
2019-02-24T00:15:33.597Z,9.20
2019-02-24T00:18:02.122Z,9.15
2019-02-24T00:20:30.633Z,9.25
2019-02-24T00:22:59.157Z,6.03
2019-02-24T00:25:27.677Z,6.65
2019-02-24T00:27:56.242Z,7.12
2019-02-24T00:30:24.766Z,6.92
2019-02-24T00:32:53.282Z,8.23
2019-02-24T00:35:21.802Z,8.43
2019-02-24T00:37:50.325Z,6.72
2019-02-24T00:40:18.893Z,5.97
2019-02-24T00:42:47.414Z,8.63
2019-02-24T00:45:15.931Z,11.03
2019-02-24T00:47:44.461Z,10.98
2019-02-24T00:50:12.965Z,7.87
2019-02-24T00:52:41.545Z,7.97
2019-02-24T00:55:10.058Z,9.83
2019-02-24T00:57:38.579Z,9.00
2019-02-24T01:00:10.104Z,9.33
2019-02-24T01:02:38.624Z,9.08
2019-02-24T01:05:08.580Z,9.65
2019-02-24T01:07:37.095Z,9.10
2019-02-24T01:10:08.315Z,7.97
2019-02-24T01:12:36.848Z,8.50
2019-02-24T01:15:08.271Z,7.12
2019-02-24T01:17:36.841Z,7.25
2019-02-24T01:20:07.764Z,8.30
2019-02-24T01:22:36.290Z,10.00
2019-02-24T01:25:04.835Z,9.43
2019-02-24T01:27:33.362Z,9.80
2019-02-24T01:30:02.025Z,12.10
2019-02-24T01:32:30.542Z,11.10
2019-02-24T01:34:59.058Z,11.63
2019-02-24T01:37:27.588Z,12.82
2019-02-24T01:39:56.100Z,12.93
2019-02-24T01:42:24.672Z,11.22
2019-02-24T01:44:53.223Z,13.70
2019-02-24T01:47:21.734Z,12.65
2019-02-24T01:49:50.258Z,12.47
2019-02-24T01:52:18.771Z,11.38
2019-02-24T01:54:47.335Z,10.93
2019-02-24T01:57:15.856Z,11.05
2019-02-24T01:59:44.374Z,10.63
2019-02-24T02:02:12.900Z,10.35
2019-02-24T02:04:41.414Z,11.00
2019-02-24T02:07:09.982Z,10.45
2019-02-24T02:09:38.499Z,10.03
2019-02-24T02:12:07.020Z,10.72
2019-02-24T02:14:35.541Z,10.45
2019-02-24T02:17:04.057Z,11.53
2019-02-24T02:19:32.659Z,10.15
2019-02-24T02:22:01.121Z,11.22
2019-02-24T02:24:29.636Z,11.48
2019-02-24T02:26:58.165Z,11.70
2019-02-24T02:29:26.692Z,10.60
2019-02-24T02:31:55.250Z,11.60
2019-02-24T02:34:23.761Z,11.57
2019-02-24T02:36:52.275Z,10.25
2019-02-24T02:39:20.792Z,10.32
2019-02-24T02:41:49.306Z,10.55
2019-02-24T02:44:17.877Z,11.60
2019-02-24T02:46:46.399Z,10.40
2019-02-24T02:49:14.915Z,10.75
2019-02-24T02:51:43.428Z,9.80
2019-02-24T02:54:11.944Z,9.55
2019-02-24T02:56:40.510Z,8.55
2019-02-24T02:59:09.020Z,9.45
2019-02-24T03:01:37.529Z,9.25
2019-02-24T03:04:06.058Z,8.65
2019-02-24T03:06:45.203Z,9.05
2019-02-24T03:09:13.715Z,9.40
2019-02-24T03:11:42.228Z,9.33
2019-02-24T03:14:10.790Z,9.33
2019-02-24T03:16:39.303Z,9.10
2019-02-24T03:19:07.822Z,8.95
2019-02-24T03:21:36.341Z,8.75
2019-02-24T03:24:04.861Z,10.08
2019-02-24T03:26:33.435Z,9.00
2019-02-24T03:29:04.392Z,9.88
2019-02-24T03:31:32.185Z,13.48
2019-02-24T03:34:00.717Z,13.32
2019-02-24T03:36:29.227Z,10.93
2019-02-24T03:38:57.791Z,10.05
2019-02-24T03:41:26.304Z,11.28
2019-02-24T03:43:54.821Z,12.28
2019-02-24T03:46:23.338Z,9.30
2019-02-24T03:48:51.845Z,9.25
2019-02-24T03:51:20.433Z,11.00
2019-02-24T03:53:48.942Z,10.95
2019-02-24T03:56:17.446Z,9.43
2019-02-24T03:58:45.968Z,10.25
2019-02-24T04:01:14.484Z,13.22
2019-02-24T04:03:43.032Z,11.57
2019-02-24T04:06:11.547Z,17.12
2019-02-24T04:08:40.056Z,12.82
2019-02-24T04:11:08.600Z,11.68
2019-02-24T04:13:37.104Z,11.95
2019-02-24T04:16:05.661Z,12.30
2019-02-24T04:18:34.179Z,15.08
2019-02-24T04:21:02.701Z,17.12
2019-02-24T04:23:31.230Z,17.90
2019-02-24T04:25:59.757Z,16.20
2019-02-24T04:28:28.289Z,11.78
2019-02-24T04:30:56.799Z,9.53
2019-02-24T04:33:25.324Z,10.85
2019-02-24T04:35:53.847Z,11.12
2019-02-24T04:38:22.364Z,12.15
2019-02-24T04:40:50.943Z,14.10
2019-02-24T04:43:19.467Z,13.00
2019-02-24T04:45:48.004Z,11.83
2019-02-24T04:48:16.527Z,12.63
2019-02-24T04:50:45.049Z,16.35
2019-02-24T04:53:13.609Z,16.05
2019-02-24T04:55:42.139Z,15.00
2019-02-24T04:58:10.649Z,11.83
2019-02-24T05:00:39.189Z,11.53
2019-02-24T05:03:07.702Z,13.35
2019-02-24T05:05:36.259Z,13.50
2019-02-24T05:08:04.782Z,13.15
2019-02-24T05:10:33.299Z,15.00
2019-02-24T05:13:01.833Z,14.33
2019-02-24T05:15:30.352Z,14.38
2019-02-24T05:17:58.935Z,19.62
2019-02-24T05:20:27.451Z,16.15
2019-02-24T05:22:55.973Z,18.25
2019-02-24T05:25:24.500Z,18.25
2019-02-24T05:27:53.025Z,19.05
2019-02-24T05:30:21.548Z,18.42
2019-02-24T05:32:50.114Z,19.65
2019-02-24T05:35:18.596Z,28.50
2019-02-24T05:37:47.114Z,22.45
2019-02-24T05:40:15.674Z,24.10
2019-02-24T05:42:44.190Z,18.77
2019-02-24T05:45:12.710Z,16.80
2019-02-24T05:47:41.288Z,15.30
2019-02-24T05:50:09.802Z,19.07
2019-02-24T05:52:38.333Z,223.07
2019-02-24T05:55:07.472Z,64.17
2019-02-24T05:57:35.997Z,47.57
2019-02-24T06:00:05.078Z,42.73
2019-02-24T06:02:33.593Z,34.50
2019-02-24T06:05:02.108Z,34.80
2019-02-24T06:07:30.671Z,53.83
2019-02-24T06:09:59.186Z,54.47
2019-02-24T06:12:27.696Z,25.70
2019-02-24T06:14:56.224Z,44.03
2019-02-24T06:17:24.728Z,33.57
2019-02-24T06:19:53.286Z,41.93
2019-02-24T06:22:21.792Z,31.07
2019-02-24T06:24:50.305Z,33.80
2019-02-24T06:27:18.821Z,27.37
2019-02-24T06:29:47.338Z,24.03
2019-02-24T06:32:15.896Z,21.00
2019-02-24T06:34:44.412Z,17.97
2019-02-24T06:37:12.926Z,14.40
2019-02-24T06:39:41.445Z,15.50
2019-02-24T06:42:09.958Z,21.27
2019-02-24T06:44:38.515Z,19.73
2019-02-24T06:47:07.022Z,28.87
2019-02-24T06:49:35.535Z,22.33
2019-02-24T06:52:04.049Z,18.57
2019-02-24T06:54:32.560Z,18.50
2019-02-24T06:57:01.130Z,15.33
2019-02-24T06:59:29.635Z,19.53
2019-02-24T07:01:58.145Z,22.53
2019-02-24T07:04:26.668Z,22.10
2019-02-24T07:06:55.174Z,21.10
2019-02-24T07:09:23.737Z,35.57
2019-02-24T07:11:52.249Z,28.00
2019-02-24T07:14:20.759Z,25.80
2019-02-24T07:16:49.274Z,39.87
2019-02-24T07:19:17.785Z,95.07
2019-02-24T07:21:46.333Z,23.37
2019-02-24T07:24:14.867Z,23.00
2019-02-24T07:26:43.367Z,28.03
2019-02-24T07:29:12.276Z,35.23
2019-02-24T07:31:40.799Z,18.87
2019-02-24T07:34:11.649Z,26.80
2019-02-24T07:36:40.162Z,30.77
2019-02-24T07:39:08.678Z,77.73
2019-02-24T07:41:37.206Z,29.37
2019-02-24T07:44:05.724Z,49.17
2019-02-24T07:46:34.298Z,50.03
2019-02-24T07:49:02.821Z,54.87
2019-02-24T07:51:31.332Z,37.13
2019-02-24T07:53:59.839Z,39.93
2019-02-24T07:56:28.376Z,18.37
2019-02-24T07:58:56.922Z,17.87
2019-02-24T08:01:25.425Z,23.07
2019-02-24T08:03:54.176Z,25.77
2019-02-24T08:06:22.693Z,26.47
2019-02-24T08:08:51.200Z,36.23
2019-02-24T08:11:19.752Z,29.60
2019-02-24T08:13:48.254Z,23.20
2019-02-24T08:16:16.767Z,46.30
2019-02-24T08:18:49.485Z,57.40
2019-02-24T08:21:15.533Z,49.47
2019-02-24T08:23:44.086Z,48.83
2019-02-24T08:26:12.598Z,20.00
2019-02-24T08:28:41.117Z,48.50
2019-02-24T08:31:09.674Z,47.00
2019-02-24T08:33:38.640Z,27.57
2019-02-24T08:36:07.212Z,24.17
2019-02-24T08:38:37.297Z,40.10
2019-02-24T08:41:06.176Z,28.40
2019-02-24T08:43:34.776Z,22.87
2019-02-24T08:46:03.288Z,37.80
2019-02-24T08:48:31.853Z,17.33
2019-02-24T08:51:00.359Z,28.43
2019-02-24T08:53:28.864Z,33.27
2019-02-24T08:55:57.382Z,16.50
2019-02-24T08:58:25.889Z,17.63
2019-02-24T09:00:54.447Z,21.40
2019-02-24T09:03:22.955Z,13.77
2019-02-24T09:05:51.470Z,20.53
2019-02-24T09:08:19.992Z,27.83
2019-02-24T09:10:48.505Z,21.37
2019-02-24T09:13:17.062Z,13.37
2019-02-24T09:15:45.572Z,16.03
2019-02-24T09:18:14.085Z,22.43
2019-02-24T09:20:42.620Z,27.40
2019-02-24T09:23:11.135Z,22.27
2019-02-24T09:25:39.686Z,26.77
2019-02-24T09:28:08.203Z,8.90
2019-02-24T09:30:36.736Z,17.97
2019-02-24T09:33:05.329Z,12.53
2019-02-24T09:35:33.855Z,26.60
2019-02-24T09:38:02.412Z,24.70
2019-02-24T09:40:30.926Z,16.77
2019-02-24T09:42:59.431Z,15.37
2019-02-24T09:45:27.952Z,13.50
2019-02-24T09:47:56.489Z,16.40
2019-02-24T09:50:25.031Z,18.87
2019-02-24T09:52:53.546Z,14.97
2019-02-24T09:55:22.063Z,18.40
2019-02-24T09:57:50.599Z,11.77
2019-02-24T10:00:19.107Z,31.53
2019-02-24T10:02:47.678Z,17.00
2019-02-24T10:05:16.182Z,31.07
2019-02-24T10:07:44.690Z,17.67
2019-02-24T10:10:13.503Z,20.57
2019-02-24T10:12:42.012Z,14.43
2019-02-24T10:15:13.090Z,11.13
2019-02-24T10:17:41.582Z,10.13
2019-02-24T10:20:11.195Z,8.27
2019-02-24T10:22:39.715Z,10.50
2019-02-24T10:25:09.167Z,17.43
2019-02-24T10:27:37.721Z,15.40
2019-02-24T10:30:11.535Z,9.47
2019-02-24T10:32:40.059Z,17.97
2019-02-24T10:35:08.564Z,6.87
2019-02-24T10:37:37.077Z,5.03
2019-02-24T10:40:08.881Z,5.43
2019-02-24T10:42:37.466Z,7.20
2019-02-24T10:45:09.066Z,9.03
2019-02-24T10:47:37.622Z,5.20
2019-02-24T10:50:09.495Z,5.27
2019-02-24T10:52:38.090Z,6.73
2019-02-24T10:55:06.699Z,17.23
2019-02-24T10:57:35.204Z,6.00
2019-02-24T11:00:05.917Z,4.13
2019-02-24T11:02:34.422Z,7.10
2019-02-24T11:05:02.970Z,72.00
2019-02-24T11:07:31.478Z,15.70
2019-02-24T11:09:59.985Z,18.43
2019-02-24T11:12:28.505Z,12.83
2019-02-24T11:14:57.008Z,12.43
2019-02-24T11:17:25.611Z,10.50
2019-02-24T11:19:54.091Z,6.20
2019-02-24T11:22:22.592Z,9.93
2019-02-24T11:24:51.145Z,5.07
2019-02-24T11:27:19.655Z,19.90
2019-02-24T11:29:48.156Z,7.70
2019-02-24T11:32:16.676Z,6.13
2019-02-24T11:34:45.191Z,30.37
2019-02-24T11:37:13.740Z,10.03
2019-02-24T11:39:42.248Z,6.17
2019-02-24T11:42:10.751Z,6.93
2019-02-24T11:44:39.268Z,6.83
2019-02-24T11:47:07.771Z,6.37
2019-02-24T11:49:36.336Z,6.00
2019-02-24T11:52:04.853Z,9.90
2019-02-24T11:54:33.361Z,7.73
2019-02-24T11:57:01.892Z,10.90
2019-02-24T11:59:30.400Z,8.80
2019-02-24T12:01:58.906Z,11.00
2019-02-24T12:04:27.466Z,6.93
2019-02-24T12:06:55.958Z,6.77
2019-02-24T12:09:24.458Z,8.93
2019-02-24T12:11:53.009Z,12.03
2019-02-24T12:14:21.592Z,9.50
2019-02-24T12:16:50.102Z,5.63
2019-02-24T12:19:18.620Z,13.77
2019-02-24T12:21:47.131Z,6.80
2019-02-24T12:24:15.685Z,10.77
2019-02-24T12:26:44.194Z,18.57
2019-02-24T12:29:12.699Z,8.20
2019-02-24T12:31:41.219Z,6.43
2019-02-24T12:34:09.725Z,7.60
2019-02-24T12:36:38.282Z,6.93
2019-02-24T12:39:06.782Z,4.70
2019-02-24T12:41:35.302Z,14.97
2019-02-24T12:44:03.811Z,9.40
2019-02-24T12:46:32.312Z,10.53
2019-02-24T12:49:00.882Z,7.20
2019-02-24T12:51:29.363Z,8.53
2019-02-24T12:53:57.875Z,11.03
2019-02-24T12:56:26.396Z,10.60
2019-02-24T12:58:54.928Z,19.27
2019-02-24T13:01:23.484Z,9.67
2019-02-24T13:03:51.994Z,10.13
2019-02-24T13:06:20.492Z,7.30
2019-02-24T13:08:49.011Z,10.97
2019-02-24T13:11:17.519Z,7.77
2019-02-24T13:13:46.072Z,6.53
2019-02-24T13:16:14.589Z,16.07
2019-02-24T13:18:43.094Z,8.57
2019-02-24T13:21:11.615Z,15.40
2019-02-24T13:23:40.124Z,10.60
2019-02-24T13:26:08.687Z,10.40
2019-02-24T13:28:37.191Z,17.03
2019-02-24T13:31:05.702Z,20.60
2019-02-24T13:33:34.226Z,11.97
2019-02-24T13:36:02.750Z,23.27
2019-02-24T13:38:31.317Z,19.90
2019-02-24T13:41:01.415Z,18.90
2019-02-24T13:43:29.926Z,43.97
2019-02-24T13:45:58.449Z,22.23
2019-02-24T13:48:26.967Z,50.43
2019-02-24T13:50:55.523Z,19.23
2019-02-24T13:53:24.039Z,25.40
2019-02-24T13:55:52.547Z,9.87
2019-02-24T13:58:21.086Z,23.50
2019-02-24T14:00:49.587Z,14.77
2019-02-24T14:03:18.137Z,8.00
2019-02-24T14:05:46.654Z,17.27
2019-02-24T14:08:15.162Z,14.57
2019-02-24T14:10:43.692Z,10.23
2019-02-24T14:13:12.192Z,11.50
2019-02-24T14:15:40.753Z,9.53
2019-02-24T14:18:09.254Z,7.83
2019-02-24T14:20:37.775Z,12.00
2019-02-24T14:23:06.300Z,42.20
2019-02-24T14:25:34.814Z,41.50
2019-02-24T14:28:03.381Z,16.13
2019-02-24T14:30:31.884Z,13.40
2019-02-24T14:33:00.391Z,12.77
2019-02-24T14:35:28.952Z,14.77
2019-02-24T14:37:57.461Z,22.30
2019-02-24T14:40:26.044Z,18.00
2019-02-24T14:42:54.582Z,10.00
2019-02-24T14:45:24.760Z,84.50
2019-02-24T14:47:53.345Z,216.60
2019-02-24T14:50:22.426Z,51.00
2019-02-24T14:52:50.983Z,76.50
2019-02-24T14:55:19.520Z,122.87
2019-02-24T14:57:48.040Z,150.60
2019-02-24T15:00:18.821Z,105.37
2019-02-24T15:02:47.351Z,179.37
2019-02-24T15:05:16.810Z,61.23
2019-02-24T15:07:45.607Z,57.43
2019-02-24T15:10:19.916Z,84.17
2019-02-24T15:12:48.432Z,69.60
2019-02-24T15:15:22.351Z,38.60
2019-02-24T15:17:50.863Z,67.20
2019-02-24T15:20:20.470Z,94.43
2019-02-24T15:22:49.001Z,47.60
2019-02-24T15:25:19.076Z,43.63
2019-02-24T15:27:47.651Z,57.00
2019-02-24T15:30:28.024Z,80.77
2019-02-24T15:32:56.614Z,62.27
2019-02-24T15:35:25.222Z,78.40
2019-02-24T15:37:53.720Z,31.87
2019-02-24T15:40:22.233Z,19.87
2019-02-24T15:42:50.751Z,41.13
2019-02-24T15:45:19.312Z,47.77
2019-02-24T15:47:47.837Z,41.67
2019-02-24T15:50:16.361Z,50.43
2019-02-24T15:52:44.896Z,44.67
2019-02-24T15:55:15.566Z,41.83
2019-02-24T15:57:44.082Z,48.93
2019-02-24T16:00:19.773Z,53.70
2019-02-24T16:02:48.291Z,48.87
2019-02-24T16:05:16.859Z,30.17
2019-02-24T16:07:45.369Z,19.70
2019-02-24T16:10:16.553Z,42.50
2019-02-24T16:12:45.110Z,44.60
2019-02-24T16:15:15.523Z,17.00
2019-02-24T16:17:44.040Z,42.90
2019-02-24T16:20:17.775Z,30.60
2019-02-24T16:22:46.288Z,48.33
2019-02-24T16:25:14.874Z,49.63
2019-02-24T16:27:43.397Z,43.67
2019-02-24T16:30:16.270Z,92.97
2019-02-24T16:32:44.834Z,68.00
2019-02-24T16:35:15.063Z,76.10
2019-02-24T16:37:43.577Z,82.33
2019-02-24T16:40:23.490Z,64.87
2019-02-24T16:42:53.558Z,45.70
2019-02-24T16:45:22.135Z,66.80
2019-02-24T16:47:50.655Z,63.70
2019-02-24T16:50:21.236Z,58.13
2019-02-24T16:52:49.770Z,52.63
2019-02-24T16:55:18.599Z,79.73
2019-02-24T16:57:48.102Z,66.43
2019-02-24T17:00:23.263Z,40.63
2019-02-24T17:02:51.780Z,71.57
2019-02-24T17:05:20.336Z,37.57
2019-02-24T17:07:49.377Z,34.20
2019-02-24T17:10:23.907Z,21.90
2019-02-24T17:12:52.434Z,24.97
2019-02-24T17:15:20.942Z,17.50
2019-02-24T17:17:49.498Z,24.53
2019-02-24T17:20:22.623Z,23.07
2019-02-24T17:22:51.130Z,17.90
2019-02-24T17:25:19.696Z,17.73
2019-02-24T17:27:48.200Z,25.13
2019-02-24T17:30:16.806Z,20.20
2019-02-24T17:32:45.332Z,20.93
2019-02-24T17:35:13.840Z,15.87
2019-02-24T17:37:42.410Z,20.47
2019-02-24T17:40:16.044Z,14.87
2019-02-24T17:42:44.560Z,21.37
2019-02-24T17:45:14.005Z,23.53
2019-02-24T17:47:42.526Z,26.97
2019-02-24T17:50:12.630Z,21.80
2019-02-24T17:52:41.273Z,22.20
2019-02-24T17:55:14.484Z,22.90
2019-02-24T17:57:43.023Z,21.80
2019-02-24T18:00:14.427Z,15.93
2019-02-24T18:02:42.939Z,19.47
2019-02-24T18:05:12.958Z,22.43
2019-02-24T18:07:41.471Z,18.07
2019-02-24T18:10:10.017Z,11.17
2019-02-24T18:12:38.536Z,8.90
2019-02-24T18:15:10.048Z,9.03
2019-02-24T18:17:38.576Z,10.27
2019-02-24T18:20:09.776Z,9.37
2019-02-24T18:22:38.405Z,12.47
2019-02-24T18:25:10.711Z,64.97
2019-02-24T18:27:39.235Z,82.90
2019-02-24T18:30:10.882Z,31.77
2019-02-24T18:32:39.407Z,50.57
2019-02-24T18:35:07.955Z,20.50
2019-02-24T18:37:36.476Z,20.87
2019-02-24T18:40:07.679Z,19.47
2019-02-24T18:42:36.221Z,74.50
2019-02-24T18:45:05.643Z,103.80
2019-02-24T18:47:34.232Z,31.97
2019-02-24T18:50:03.142Z,44.60
2019-02-24T18:52:31.668Z,22.97
2019-02-24T18:55:00.294Z,69.40
2019-02-24T18:57:28.804Z,44.97
2019-02-24T18:59:58.887Z,63.97
2019-02-24T19:02:27.415Z,48.40
2019-02-24T19:04:55.932Z,22.70
2019-02-24T19:07:24.457Z,77.33
2019-02-24T19:09:52.980Z,61.00
2019-02-24T19:12:21.564Z,39.77
2019-02-24T19:14:50.102Z,30.83
2019-02-24T19:17:18.602Z,36.97
2019-02-24T19:19:47.173Z,23.43
2019-02-24T19:22:15.700Z,34.40
2019-02-24T19:24:44.210Z,21.47
2019-02-24T19:27:12.780Z,16.90
2019-02-24T19:29:41.298Z,38.70
2019-02-24T19:32:09.817Z,30.43
2019-02-24T19:34:38.778Z,25.83
2019-02-24T19:37:07.299Z,19.93
2019-02-24T19:39:35.886Z,26.93
2019-02-24T19:42:04.406Z,24.40
2019-02-24T19:44:32.926Z,22.07
2019-02-24T19:47:01.522Z,19.37
2019-02-24T19:49:30.072Z,21.13
2019-02-24T19:51:58.652Z,20.20
2019-02-24T19:54:27.172Z,22.30
2019-02-24T19:56:55.681Z,27.63
2019-02-24T19:59:24.218Z,51.53
2019-02-24T20:01:52.738Z,39.47
2019-02-24T20:04:21.312Z,48.10
2019-02-24T20:06:49.836Z,32.50
2019-02-24T20:09:18.373Z,42.33
2019-02-24T20:11:46.910Z,41.67
2019-02-24T20:14:15.421Z,71.73
2019-02-24T20:16:44.029Z,41.93
2019-02-24T20:19:12.542Z,42.67
2019-02-24T20:21:41.099Z,40.70
2019-02-24T20:24:09.725Z,37.47
2019-02-24T20:26:38.248Z,34.90
2019-02-24T20:29:06.817Z,24.03
2019-02-24T20:31:35.332Z,24.77
2019-02-24T20:34:03.847Z,26.77
2019-02-24T20:36:32.365Z,31.57
2019-02-24T20:39:00.876Z,26.57
2019-02-24T20:41:29.467Z,23.03
2019-02-24T20:43:57.989Z,22.17
2019-02-24T20:46:26.512Z,24.20
2019-02-24T20:48:55.087Z,24.70
2019-02-24T20:51:23.604Z,22.80
2019-02-24T20:53:52.138Z,20.47
2019-02-24T20:56:21.087Z,16.37
2019-02-24T20:58:49.613Z,17.63
2019-02-24T21:01:18.185Z,27.90
2019-02-24T21:03:46.698Z,31.40
2019-02-24T21:06:15.218Z,37.93
2019-02-24T21:08:43.794Z,41.20
2019-02-24T21:11:12.312Z,36.27
2019-02-24T21:13:40.822Z,30.63
2019-02-24T21:16:09.414Z,32.73
2019-02-24T21:18:37.940Z,24.43
2019-02-24T21:21:06.458Z,14.67
2019-02-24T21:23:35.019Z,10.90
2019-02-24T21:26:03.528Z,11.33
2019-02-24T21:28:32.038Z,10.90
2019-02-24T21:31:00.613Z,10.43
2019-02-24T21:33:29.127Z,10.77
2019-02-24T21:35:57.638Z,12.70
2019-02-24T21:38:26.168Z,11.57
2019-02-24T21:40:54.670Z,20.90
2019-02-24T21:43:23.242Z,16.60
2019-02-24T21:45:51.756Z,11.10
2019-02-24T21:48:20.266Z,12.10
2019-02-24T21:50:48.779Z,12.77
2019-02-24T21:53:17.301Z,18.87
2019-02-24T21:55:45.866Z,22.00
2019-02-24T21:58:14.378Z,24.87
2019-02-24T22:00:42.889Z,26.67
2019-02-24T22:03:11.406Z,31.17
2019-02-24T22:05:39.925Z,25.90
2019-02-24T22:08:08.490Z,16.40
2019-02-24T22:10:37.003Z,15.10
2019-02-24T22:13:05.520Z,48.27
2019-02-24T22:15:34.037Z,24.20
2019-02-24T22:18:02.553Z,27.20
2019-02-24T22:20:31.113Z,19.80
2019-02-24T22:22:59.628Z,14.00
2019-02-24T22:25:28.137Z,13.93
2019-02-24T22:27:56.657Z,14.47
2019-02-24T22:30:25.169Z,15.03
2019-02-24T22:32:53.724Z,15.70
2019-02-24T22:35:22.235Z,17.23
2019-02-24T22:37:50.750Z,19.17
2019-02-24T22:40:19.268Z,20.03
2019-02-24T22:42:47.784Z,20.87
2019-02-24T22:45:20.073Z,19.50
2019-02-24T22:47:48.585Z,19.53
2019-02-24T22:50:17.099Z,19.27
2019-02-24T22:52:46.186Z,18.03
2019-02-24T22:55:18.887Z,20.23
2019-02-24T22:57:47.395Z,19.33
2019-02-24T23:00:53.664Z,19.83
2019-02-24T23:03:24.323Z,19.50
2019-02-24T23:05:52.838Z,17.73
2019-02-24T23:08:21.344Z,18.10
2019-02-24T23:10:49.867Z,19.47
2019-02-24T23:13:18.423Z,16.90
2019-02-24T23:15:47.017Z,16.57
2019-02-24T23:18:15.536Z,16.90
2019-02-24T23:20:44.048Z,16.70
2019-02-24T23:23:12.563Z,17.10
2019-02-24T23:25:41.070Z,17.27
2019-02-24T23:28:09.640Z,17.77
2019-02-24T23:30:38.144Z,18.07
2019-02-24T23:33:06.656Z,17.30
2019-02-24T23:35:35.176Z,18.33
2019-02-24T23:38:03.684Z,18.43
2019-02-24T23:40:32.235Z,20.37
2019-02-24T23:43:00.748Z,20.67
2019-02-24T23:45:29.257Z,20.97
2019-02-24T23:47:57.779Z,21.63
2019-02-24T23:50:26.290Z,18.90
2019-02-24T23:52:54.841Z,19.97
2019-02-24T23:55:23.347Z,21.03
2019-02-24T23:57:51.861Z,19.43
